Terminal Aerodrome Forecast
Issued by NWS

Home | Current Version | Previous Version | Text Only | Print | Product List | Glossary On
Versions: 1 2 3 4 5 6 7 8 9 10 11 12 13 14
000
FTUS46 KMTR 250500
TAFSJC
TAF
KSJC 250534Z 2506/2606 13010KT P6SM FEW015 BKN200
     FM250900 14012KT P6SM SCT015 BKN150
     FM251200 14012G25KT P6SM SCT030 BKN050
      TEMPO 2515/2518 15015G25KT -SHRA BKN040
     FM251800 15015KT P6SM -SHRA BKN050
     FM252300 28007KT P6SM SCT250=

USA.gov is the U.S. government's official web portal to all federal, state and local government web resources and services.